Time;durP1;ratioP1;P1;durP2;ratioP2;P2;SDS_P1;SDS_P2;PMS_P1;PMS_P2;Temp;Humidity;BMP_temperature;BMP_pressure;BME280_temperature;BME280_humidity;BME280_pressure;Samples;Min_cycle;Max_cycle;Signal;HPM_P1;HPM_P2
2021/09/07 00:00:05;;;;;;;14.43;6.78;;;;;;;10.72;60.00;101839.96;1828324;77;21070;-66
2021/09/07 00:02:33;;;;;;;12.07;6.35;;;;;;;10.69;60.34;101836.66;1831023;77;21023;-66
2021/09/07 00:04:59;;;;;;;11.65;6.08;;;;;;;10.69;60.43;101841.92;1792333;77;21827;-67
2021/09/07 00:07:25;;;;;;;14.13;6.85;;;;;;;10.69;60.38;101834.90;1825354;77;21026;-68
2021/09/07 00:09:52;;;;;;;12.98;6.83;;;;;;;10.69;60.18;101837.98;1828333;77;21061;-67
2021/09/07 00:12:20;;;;;;;11.95;6.65;;;;;;;10.69;60.14;101845.88;1829293;77;20983;-67
2021/09/07 00:14:47;;;;;;;11.73;6.78;;;;;;;10.68;60.15;101849.47;1830537;77;21058;-69
2021/09/07 00:17:14;;;;;;;13.62;5.97;;;;;;;10.65;60.21;101845.69;1829783;77;23242;-67
2021/09/07 00:19:43;;;;;;;10.60;6.00;;;;;;;10.66;60.34;101840.78;1825578;77;21430;-66
2021/09/07 00:22:09;;;;;;;11.85;5.95;;;;;;;10.74;60.64;101843.83;1833276;77;21113;-67
2021/09/07 00:24:35;;;;;;;11.43;5.80;;;;;;;10.82;60.68;101846.03;1801862;77;22388;-67
2021/09/07 00:27:02;;;;;;;13.85;6.62;;;;;;;10.87;60.77;101840.87;1835826;77;21011;-67
2021/09/07 00:29:29;;;;;;;11.25;5.92;;;;;;;10.87;61.19;101845.30;1835261;77;21367;-69
2021/09/07 00:31:56;;;;;;;11.50;6.62;;;;;;;10.85;62.12;101842.75;1837262;77;21022;-67
2021/09/07 00:34:24;;;;;;;12.28;6.78;;;;;;;10.82;62.29;101848.19;1835104;77;21062;-66
2021/09/07 00:36:50;;;;;;;11.80;6.50;;;;;;;10.78;62.09;101844.05;1828812;77;21516;-68
2021/09/07 00:39:16;;;;;;;12.88;5.97;;;;;;;10.75;62.01;101844.22;1799554;77;21030;-72
2021/09/07 00:41:43;;;;;;;14.25;6.92;;;;;;;10.71;62.07;101848.81;1833316;77;22676;-71
2021/09/07 00:44:23;;;;;;;12.70;6.22;;;;;;;10.70;62.37;101848.91;1834210;77;21091;-72
2021/09/07 00:46:57;;;;;;;9.58;5.45;;;;;;;10.65;62.52;101857.05;1835838;77;21034;-66
2021/09/07 00:49:25;;;;;;;12.98;6.97;;;;;;;10.60;62.46;101850.73;1839049;76;21533;-69
2021/09/07 00:51:52;;;;;;;10.20;5.72;;;;;;;10.56;62.52;101860.22;1829468;76;21565;-66
2021/09/07 00:54:20;;;;;;;13.00;6.03;;;;;;;10.52;62.48;101850.34;1838177;77;21129;-71
2021/09/07 00:56:47;;;;;;;14.95;6.78;;;;;;;10.58;62.41;101853.92;1835161;76;21508;-71
2021/09/07 00:59:14;;;;;;;7.95;5.47;;;;;;;10.63;62.61;101851.52;1797537;77;21064;-67
2021/09/07 01:01:41;;;;;;;10.38;6.03;;;;;;;10.66;62.72;101850.00;1827849;77;21496;-71
2021/09/07 01:04:08;;;;;;;11.53;6.50;;;;;;;10.66;62.83;101855.26;1803477;77;21405;-66
2021/09/07 01:06:35;;;;;;;14.05;6.40;;;;;;;10.63;62.91;101854.98;1804074;77;21883;-67
2021/09/07 01:09:02;;;;;;;14.00;5.87;;;;;;;10.62;62.96;101844.54;1831095;76;21065;-72
2021/09/07 01:11:30;;;;;;;11.05;5.97;;;;;;;10.61;62.97;101848.97;1831654;77;21468;-69
2021/09/07 01:13:57;;;;;;;15.15;6.95;;;;;;;10.58;62.98;101848.66;1791061;79;21060;-72
2021/09/07 01:16:27;;;;;;;12.43;6.95;;;;;;;10.56;63.01;101848.38;1772512;80;21037;-67
2021/09/07 01:18:55;;;;;;;13.43;6.67;;;;;;;10.53;63.07;101849.86;1762134;80;21084;-68
2021/09/07 01:21:21;;;;;;;10.60;6.30;;;;;;;10.48;63.23;101846.17;1779156;80;21110;-68
2021/09/07 01:23:49;;;;;;;12.13;6.20;;;;;;;10.41;63.34;101843.51;1735853;81;21123;-66
2021/09/07 01:26:17;;;;;;;11.57;5.78;;;;;;;10.39;63.38;101844.91;1780206;80;21073;-67
2021/09/07 01:28:45;;;;;;;11.18;6.05;;;;;;;10.46;63.38;101836.20;1773997;80;21009;-68
2021/09/07 01:31:12;;;;;;;8.85;5.58;;;;;;;10.52;63.35;101848.16;1765772;80;21660;-68
2021/09/07 01:33:41;;;;;;;12.93;6.70;;;;;;;10.54;63.48;101845.83;1736607;80;21076;-69
2021/09/07 01:36:08;;;;;;;12.80;6.45;;;;;;;10.52;63.52;101854.28;1767953;80;21024;-68
2021/09/07 01:38:36;;;;;;;11.50;6.20;;;;;;;10.48;63.85;101850.11;1765816;80;21079;-72
2021/09/07 01:41:03;;;;;;;12.58;6.45;;;;;;;10.46;63.96;101849.36;1765204;80;21609;-70
2021/09/07 01:43:29;;;;;;;10.60;6.17;;;;;;;10.42;63.98;101849.12;1764307;79;21499;-66
2021/09/07 01:45:56;;;;;;;9.73;5.83;;;;;;;10.39;64.20;101850.17;1762745;80;21056;-71
2021/09/07 01:48:24;;;;;;;12.68;6.08;;;;;;;10.35;64.30;101845.16;1766567;80;21841;-70
2021/09/07 01:50:50;;;;;;;9.58;5.53;;;;;;;10.32;64.33;101843.56;1767730;80;21045;-67
2021/09/07 01:53:17;;;;;;;11.90;6.03;;;;;;;10.28;64.31;101844.61;1768953;80;21616;-67
2021/09/07 01:55:44;;;;;;;11.80;4.83;;;;;;;10.26;64.27;101849.59;1739250;80;21168;-68
2021/09/07 01:58:10;;;;;;;9.25;5.10;;;;;;;10.27;64.23;101846.02;1765817;80;21080;-66
2021/09/07 02:00:38;;;;;;;11.68;5.65;;;;;;;10.31;64.14;101847.08;1766604;80;21059;-67
2021/09/07 02:03:04;;;;;;;13.10;6.12;;;;;;;10.33;64.02;101847.87;1726495;80;21545;-67
2021/09/07 02:05:31;;;;;;;12.37;6.42;;;;;;;10.33;64.02;101852.29;1768965;80;21102;-67
2021/09/07 02:07:58;;;;;;;10.50;6.25;;;;;;;10.30;63.88;101845.84;1766449;80;21423;-67
2021/09/07 02:10:24;;;;;;;15.28;7.30;;;;;;;10.25;64.00;101851.36;1762778;79;21103;-67
2021/09/07 02:12:52;;;;;;;11.80;6.60;;;;;;;10.20;63.91;101850.32;1765697;79;21090;-67
2021/09/07 02:15:20;;;;;;;14.33;7.62;;;;;;;10.15;63.90;101854.95;1767786;79;21095;-67
2021/09/07 02:17:47;;;;;;;12.95;7.78;;;;;;;10.11;63.69;101858.70;1760622;79;21063;-67
2021/09/07 02:20:16;;;;;;;14.38;7.15;;;;;;;10.06;63.76;101859.41;1766088;79;21527;-68
2021/09/07 02:22:43;;;;;;;13.50;7.75;;;;;;;10.02;63.87;101860.53;1769483;79;21088;-66
2021/09/07 02:25:10;;;;;;;16.65;8.33;;;;;;;9.96;63.75;101857.74;1768188;79;21048;-69
2021/09/07 02:27:38;;;;;;;14.70;8.00;;;;;;;9.89;63.60;101851.13;1742385;80;21094;-67
2021/09/07 02:30:07;;;;;;;15.10;8.28;;;;;;;9.85;63.73;101854.39;1765823;79;21058;-68
2021/09/07 02:32:35;;;;;;;16.20;7.67;;;;;;;9.84;63.65;101859.25;1773133;79;21233;-66
2021/09/07 02:35:02;;;;;;;15.98;7.80;;;;;;;9.89;63.54;101858.17;1770575;79;21416;-67
2021/09/07 02:37:29;;;;;;;10.35;6.75;;;;;;;9.89;63.67;101859.48;1769600;79;21064;-67
2021/09/07 02:39:56;;;;;;;14.35;8.40;;;;;;;9.93;63.81;101855.75;1729365;80;21636;-70
2021/09/07 02:42:24;;;;;;;13.13;8.00;;;;;;;9.91;63.94;101863.72;1768675;80;21546;-68
2021/09/07 02:44:51;;;;;;;16.10;9.03;;;;;;;9.91;63.91;101857.14;1766664;80;21091;-68
2021/09/07 02:47:19;;;;;;;17.67;8.93;;;;;;;9.93;63.86;101860.53;1764908;80;21083;-67
2021/09/07 02:49:46;;;;;;;16.05;8.58;;;;;;;9.89;63.81;101863.44;1746067;80;21605;-67
2021/09/07 02:52:14;;;;;;;14.45;8.75;;;;;;;9.84;63.93;101867.14;1799785;78;21480;-66
2021/09/07 02:54:41;;;;;;;13.85;8.83;;;;;;;9.80;64.03;101867.37;1746371;80;21122;-68
2021/09/07 02:57:08;;;;;;;16.87;9.33;;;;;;;9.75;64.14;101871.59;1749984;80;21138;-66
2021/09/07 02:59:35;;;;;;;17.25;8.78;;;;;;;9.70;64.16;101870.11;1736962;80;21055;-66
2021/09/07 03:02:03;;;;;;;16.45;8.50;;;;;;;9.63;64.32;101864.33;1777820;80;21059;-66
2021/09/07 03:04:30;;;;;;;14.10;7.90;;;;;;;9.61;64.33;101866.19;1768652;78;21086;-66
2021/09/07 03:06:58;;;;;;;13.30;7.33;;;;;;;9.64;64.16;101869.50;1771604;78;21082;-67
2021/09/07 03:09:25;;;;;;;13.58;7.22;;;;;;;9.69;64.12;101870.58;1777500;78;21191;-68
2021/09/07 03:11:52;;;;;;;13.72;7.75;;;;;;;9.67;64.16;101871.13;1743443;80;21147;-66
2021/09/07 03:14:19;;;;;;;14.43;7.60;;;;;;;9.66;64.29;101866.80;1752644;78;21036;-66
2021/09/07 03:16:49;;;;;;;11.53;7.80;;;;;;;9.64;64.32;101871.30;1772857;78;21048;-68
2021/09/07 03:19:16;;;;;;;14.95;8.13;;;;;;;9.60;64.41;101865.80;1771738;80;21111;-66
2021/09/07 03:21:43;;;;;;;12.33;7.60;;;;;;;9.60;64.41;101868.42;1746389;78;21574;-68
2021/09/07 03:24:09;;;;;;;14.78;7.67;;;;;;;9.59;64.33;101868.05;1742299;80;21114;-65
2021/09/07 03:26:35;;;;;;;12.40;7.17;;;;;;;9.56;64.27;101869.52;1776377;78;21161;-68
2021/09/07 03:29:03;;;;;;;13.18;7.45;;;;;;;9.53;64.17;101874.93;1745182;80;21054;-67
2021/09/07 03:31:30;;;;;;;13.65;6.87;;;;;;;9.49;64.09;101874.25;1779436;78;21067;-66
2021/09/07 03:33:57;;;;;;;17.00;8.40;;;;;;;9.44;63.99;101877.11;1780302;78;22254;-66
2021/09/07 03:36:23;;;;;;;12.93;6.60;;;;;;;9.38;64.01;101873.50;1773233;79;21578;-65
2021/09/07 03:38:51;;;;;;;14.33;6.83;;;;;;;9.39;64.05;101876.49;1782122;78;21078;-66
2021/09/07 03:41:19;;;;;;;11.43;6.33;;;;;;;9.45;63.98;101877.50;1765139;79;21187;-65
2021/09/07 03:43:47;;;;;;;10.32;6.65;;;;;;;9.48;63.95;101873.41;1776605;79;22190;-65
2021/09/07 03:46:17;;;;;;;13.50;7.83;;;;;;;9.53;63.98;101876.25;1764724;80;21105;-67
2021/09/07 03:48:45;;;;;;;12.25;7.10;;;;;;;9.50;64.05;101866.77;1802974;77;21482;-68
2021/09/07 03:51:11;;;;;;;13.75;8.23;;;;;;;9.48;64.33;101867.28;1754115;79;21118;-72
2021/09/07 03:53:38;;;;;;;12.33;7.03;;;;;;;9.49;64.44;101870.30;1798680;79;21550;-66
2021/09/07 03:56:05;;;;;;;15.23;7.50;;;;;;;9.45;64.54;101872.25;1797133;77;21078;-69
2021/09/07 03:58:31;;;;;;;17.98;8.20;;;;;;;9.44;64.77;101871.84;1806160;77;21525;-68
2021/09/07 04:00:58;;;;;;;10.48;6.92;;;;;;;9.43;64.85;101872.80;1771010;77;21652;-68
2021/09/07 04:03:25;;;;;;;12.95;7.58;;;;;;;9.42;64.99;101868.45;1772005;79;21083;-68
2021/09/07 04:05:52;;;;;;;13.38;7.53;;;;;;;9.43;65.04;101869.30;1784914;78;21114;-67
2021/09/07 04:08:20;;;;;;;15.23;7.42;;;;;;;9.48;65.08;101876.48;1774533;79;21079;-69
2021/09/07 04:10:47;;;;;;;12.28;6.40;;;;;;;9.56;65.00;101870.84;1787398;78;21135;-69
2021/09/07 04:13:14;;;;;;;16.23;8.25;;;;;;;9.67;65.00;101875.08;1805520;77;21079;-69
2021/09/07 04:15:41;;;;;;;13.20;7.35;;;;;;;9.72;65.05;101874.37;1800065;77;21052;-70
2021/09/07 04:18:08;;;;;;;13.38;8.23;;;;;;;9.75;65.11;101877.28;1767986;79;21080;-67
2021/09/07 04:20:35;;;;;;;15.25;8.58;;;;;;;9.76;65.09;101877.68;1797047;77;21107;-69
2021/09/07 04:23:02;;;;;;;12.68;7.30;;;;;;;9.78;65.23;101881.91;1759278;79;21108;-73
2021/09/07 04:25:30;;;;;;;15.55;7.97;;;;;;;9.80;65.17;101881.83;1762980;79;21067;-67
2021/09/07 04:27:56;;;;;;;14.00;7.50;;;;;;;9.82;65.13;101882.16;1755131;79;21055;-67
2021/09/07 04:30:23;;;;;;;17.15;8.40;;;;;;;9.85;65.17;101885.94;1781811;78;21098;-66
2021/09/07 04:32:49;;;;;;;14.05;7.78;;;;;;;9.88;65.18;101885.39;1752020;79;21066;-66
2021/09/07 04:35:15;;;;;;;15.03;7.47;;;;;;;9.89;65.15;101887.09;1764489;79;21040;-67
2021/09/07 04:37:42;;;;;;;14.58;7.95;;;;;;;9.97;65.14;101887.06;1771219;79;21098;-66
2021/09/07 04:40:09;;;;;;;12.45;6.83;;;;;;;10.12;64.81;101881.89;1764882;79;21067;-64
2021/09/07 04:42:35;;;;;;;17.23;7.97;;;;;;;10.26;64.68;101883.32;1766102;79;21118;-63
2021/09/07 04:45:05;;;;;;;14.25;8.65;;;;;;;10.36;64.60;101882.39;1774544;79;21059;-65
2021/09/07 04:47:32;;;;;;;17.20;8.45;;;;;;;10.44;64.43;101884.58;1772740;79;21148;-66
2021/09/07 04:49:58;;;;;;;14.10;8.05;;;;;;;10.47;64.28;101879.98;1768503;79;22321;-64
2021/09/07 04:52:25;;;;;;;17.85;8.85;;;;;;;10.55;64.21;101879.56;1771724;79;21082;-65
2021/09/07 04:54:51;;;;;;;13.68;8.50;;;;;;;10.61;64.05;101872.66;1794383;78;21786;-65
2021/09/07 04:57:19;;;;;;;15.60;8.13;;;;;;;10.66;64.02;101873.24;1771799;78;21047;-65
2021/09/07 04:59:46;;;;;;;14.73;8.93;;;;;;;10.72;63.98;101873.35;1770656;78;21927;-64
2021/09/07 05:02:12;;;;;;;12.85;8.08;;;;;;;10.79;63.72;101874.69;1774107;78;21063;-68
2021/09/07 05:04:38;;;;;;;17.02;8.20;;;;;;;10.88;63.44;101870.70;1775996;79;21186;-66
2021/09/07 05:07:06;;;;;;;16.23;7.60;;;;;;;10.96;63.12;101869.77;1771084;78;21146;-65
2021/09/07 05:09:33;;;;;;;13.75;7.00;;;;;;;11.08;62.96;101872.19;1780667;78;21130;-65
2021/09/07 05:11:59;;;;;;;12.33;6.80;;;;;;;11.26;62.81;101871.10;1738856;79;21196;-66
2021/09/07 05:14:30;;;;;;;14.28;7.40;;;;;;;11.42;62.53;101869.70;1775474;78;22156;-67
2021/09/07 05:16:56;;;;;;;10.95;6.97;;;;;;;11.57;60.66;101871.89;1776751;78;22214;-65
2021/09/07 05:19:23;;;;;;;13.70;7.50;;;;;;;11.67;59.52;101874.34;1777102;78;21094;-71
2021/09/07 05:21:51;;;;;;;14.35;7.25;;;;;;;11.75;58.82;101876.98;1770367;78;21064;-72
2021/09/07 05:24:18;;;;;;;15.13;7.55;;;;;;;11.84;58.27;101883.86;1741814;78;21099;-70
2021/09/07 05:26:44;;;;;;;14.83;7.72;;;;;;;11.91;58.17;101884.36;1785315;78;21037;-68
2021/09/07 05:29:10;;;;;;;15.93;7.65;;;;;;;11.96;57.99;101883.60;1776573;78;21075;-66
2021/09/07 05:31:37;;;;;;;12.55;6.45;;;;;;;12.01;57.86;101888.60;1771738;78;22132;-67
2021/09/07 05:34:04;;;;;;;13.62;6.78;;;;;;;12.03;57.53;101890.67;1751783;78;21127;-65
2021/09/07 05:36:31;;;;;;;12.37;6.97;;;;;;;12.05;57.11;101898.01;1773581;78;21222;-67
2021/09/07 05:38:57;;;;;;;22.45;7.03;;;;;;;12.07;57.20;101902.27;1772380;78;22162;-66
2021/09/07 05:41:24;;;;;;;12.73;7.25;;;;;;;12.11;56.77;101902.08;1778049;78;22390;-69
2021/09/07 05:43:52;;;;;;;11.68;6.65;;;;;;;12.14;56.80;101902.73;1775261;78;21063;-65
2021/09/07 05:46:18;;;;;;;11.90;7.75;;;;;;;12.16;56.93;101906.59;1783934;79;20987;-68
2021/09/07 05:48:46;;;;;;;10.85;6.62;;;;;;;12.21;57.13;101905.83;1772940;78;21534;-71
2021/09/07 05:51:13;;;;;;;12.75;7.40;;;;;;;12.25;56.86;101903.36;1779392;78;21092;-69
2021/09/07 05:53:40;;;;;;;13.32;7.05;;;;;;;12.30;57.00;101906.55;1777762;78;21063;-65
2021/09/07 05:56:08;;;;;;;13.35;6.85;;;;;;;12.35;56.91;101907.11;1772088;78;21064;-69
2021/09/07 05:58:35;;;;;;;12.33;7.17;;;;;;;12.41;56.46;101912.49;1777104;78;21086;-67
2021/09/07 06:01:01;;;;;;;12.07;6.83;;;;;;;12.44;56.45;101910.98;1773500;78;21496;-64
2021/09/07 06:03:28;;;;;;;11.85;7.08;;;;;;;12.51;56.16;101911.41;1755165;80;21103;-71
2021/09/07 06:05:54;;;;;;;12.00;7.22;;;;;;;12.55;55.33;101910.29;1774561;78;21102;-66
2021/09/07 06:08:22;;;;;;;13.98;7.08;;;;;;;12.60;55.44;101913.48;1780637;78;21592;-67
2021/09/07 06:10:49;;;;;;;10.50;5.72;;;;;;;12.66;55.06;101912.22;1775473;78;21059;-70
2021/09/07 06:13:16;;;;;;;11.57;6.60;;;;;;;12.73;55.09;101917.51;1745602;78;21181;-69
2021/09/07 06:15:44;;;;;;;11.75;6.40;;;;;;;12.77;54.42;101913.22;1775051;78;21541;-67
2021/09/07 06:18:10;;;;;;;10.18;5.20;;;;;;;12.86;54.53;101921.50;1780717;78;21110;-68
2021/09/07 06:20:38;;;;;;;11.45;5.47;;;;;;;12.93;54.61;101918.86;1770205;78;21181;-70
2021/09/07 06:23:05;;;;;;;9.50;5.40;;;;;;;13.03;54.33;101919.94;1772235;78;21618;-68
2021/09/07 06:25:31;;;;;;;9.45;4.72;;;;;;;13.11;53.31;101924.25;1749935;80;21400;-69
2021/09/07 06:27:58;;;;;;;10.63;5.03;;;;;;;13.20;53.67;101928.91;1771938;78;21330;-65
2021/09/07 06:30:25;;;;;;;12.90;5.00;;;;;;;13.29;52.67;101925.28;1775474;78;21056;-70
2021/09/07 06:32:51;;;;;;;14.28;5.05;;;;;;;13.37;52.81;101921.68;1772234;78;21090;-69
2021/09/07 06:35:18;;;;;;;11.53;4.47;;;;;;;13.45;52.06;101919.82;1745502;78;21538;-67
2021/09/07 06:37:46;;;;;;;10.98;4.90;;;;;;;13.53;50.90;101926.31;1735943;81;21049;-65
2021/09/07 06:40:14;;;;;;;11.05;4.80;;;;;;;13.60;50.25;101927.19;1736251;81;21969;-67
2021/09/07 06:42:41;;;;;;;9.78;4.42;;;;;;;13.66;50.18;101931.59;1711493;81;21730;-65
2021/09/07 06:45:09;;;;;;;15.05;4.87;;;;;;;13.74;50.25;101931.08;1740293;81;21113;-69
2021/09/07 06:47:35;;;;;;;12.03;4.03;;;;;;;13.82;50.38;101929.20;1720237;81;21101;-71
2021/09/07 06:50:02;;;;;;;9.73;4.08;;;;;;;13.92;50.20;101932.45;1743484;81;21129;-67
2021/09/07 06:52:29;;;;;;;9.55;4.30;;;;;;;14.03;50.02;101934.33;1740073;81;21077;-66
2021/09/07 06:54:57;;;;;;;8.80;3.47;;;;;;;14.14;50.02;101934.92;1712222;81;21082;-69
2021/09/07 06:57:26;;;;;;;10.40;3.55;;;;;;;14.25;49.71;101934.98;1756221;79;21480;-67
2021/09/07 06:59:54;;;;;;;13.70;4.10;;;;;;;14.36;49.47;101942.67;1706072;80;21066;-68
2021/09/07 07:02:21;;;;;;;12.13;4.60;;;;;;;14.47;49.86;101938.75;1730206;80;21130;-67
2021/09/07 07:04:48;;;;;;;13.30;3.75;;;;;;;14.57;49.19;101938.45;1730941;80;21538;-69
2021/09/07 07:07:15;;;;;;;7.30;3.20;;;;;;;14.67;48.71;101941.32;1732841;80;21604;-69
2021/09/07 07:09:42;;;;;;;7.12;3.45;;;;;;;14.76;48.92;101942.45;1729557;82;21397;-66
2021/09/07 07:12:09;;;;;;;6.40;3.00;;;;;;;14.84;48.81;101942.73;1732392;80;21070;-69
2021/09/07 07:14:35;;;;;;;8.33;3.20;;;;;;;14.92;48.69;101948.32;1736766;80;21208;-67
2021/09/07 07:17:03;;;;;;;9.15;3.80;;;;;;;15.00;48.55;101945.13;1736828;81;21057;-67
2021/09/07 07:19:30;;;;;;;7.72;3.08;;;;;;;15.07;47.84;101938.39;1739732;80;21033;-69
2021/09/07 07:21:58;;;;;;;7.30;3.83;;;;;;;15.18;48.07;101938.91;1735273;80;21007;-71
2021/09/07 07:24:25;;;;;;;7.20;3.17;;;;;;;15.27;47.41;101942.70;1739655;80;21061;-71
2021/09/07 07:26:51;;;;;;;6.97;3.27;;;;;;;15.35;46.96;101943.80;1737441;80;21046;-66
2021/09/07 07:29:18;;;;;;;7.78;3.22;;;;;;;15.42;46.69;101950.33;1710829;80;21522;-70
2021/09/07 07:31:44;;;;;;;8.28;3.77;;;;;;;15.47;46.78;101935.39;1712202;81;21073;-72
2021/09/07 07:34:11;;;;;;;12.35;3.98;;;;;;;15.55;47.17;101936.98;1732090;80;21085;-66
2021/09/07 07:36:37;;;;;;;10.95;4.17;;;;;;;15.63;46.69;101939.03;1754836;79;21065;-67
2021/09/07 07:39:03;;;;;;;6.62;3.17;;;;;;;15.71;46.44;101930.00;1739603;80;21121;-69
2021/09/07 07:41:30;;;;;;;7.37;2.98;;;;;;;15.82;46.42;101940.30;1744941;80;21077;-65
2021/09/07 07:43:56;;;;;;;9.00;3.42;;;;;;;15.88;45.33;101935.85;1745496;81;21654;-66
2021/09/07 07:46:23;;;;;;;6.47;3.22;;;;;;;15.94;44.12;101935.38;1741742;80;21018;-66
2021/09/07 07:48:49;;;;;;;6.05;3.47;;;;;;;15.96;44.54;101932.12;1746619;81;21089;-69
2021/09/07 07:51:17;;;;;;;10.48;3.08;;;;;;;16.00;46.05;101934.87;1743986;80;21663;-66
2021/09/07 07:53:44;;;;;;;7.87;3.55;;;;;;;16.08;46.97;101936.45;1741962;80;21666;-67
2021/09/07 07:56:10;;;;;;;7.90;3.62;;;;;;;16.17;47.30;101933.55;1742603;80;21118;-67
2021/09/07 07:58:37;;;;;;;8.78;3.52;;;;;;;16.27;47.38;101931.87;1739922;80;21133;-67
2021/09/07 08:01:03;;;;;;;6.97;3.58;;;;;;;16.35;47.39;101929.92;1746062;81;21485;-71
2021/09/07 08:03:30;;;;;;;6.10;2.98;;;;;;;16.43;47.30;101922.67;1747663;81;21136;-66
2021/09/07 08:05:56;;;;;;;6.95;2.87;;;;;;;16.50;47.04;101922.04;1745385;81;21931;-70
2021/09/07 08:08:23;;;;;;;7.33;3.20;;;;;;;16.61;46.57;101925.64;1741278;80;21086;-68
2021/09/07 08:10:49;;;;;;;7.33;3.62;;;;;;;16.70;46.12;101927.06;1738013;81;21141;-65
2021/09/07 08:13:16;;;;;;;8.85;2.80;;;;;;;16.80;45.74;101927.16;1740324;81;21070;-64
2021/09/07 08:15:42;;;;;;;8.65;3.27;;;;;;;16.89;45.56;101907.84;1736541;80;21087;-64
2021/09/07 08:18:09;;;;;;;8.53;2.70;;;;;;;16.93;44.44;101915.08;1739002;80;21382;-66
2021/09/07 08:20:38;;;;;;;8.48;3.20;;;;;;;16.94;44.18;101912.75;1743683;80;21050;-66
2021/09/07 08:23:05;;;;;;;7.22;2.25;;;;;;;16.93;43.49;101916.87;1739226;80;21034;-65
2021/09/07 08:25:31;;;;;;;7.90;2.72;;;;;;;16.94;42.17;101911.42;1746317;80;21027;-70
2021/09/07 08:27:57;;;;;;;6.30;2.42;;;;;;;16.98;41.95;101911.55;1740060;80;21097;-64
2021/09/07 08:30:24;;;;;;;7.33;2.33;;;;;;;17.05;41.73;101915.88;1744755;80;21085;-65
2021/09/07 08:32:51;;;;;;;7.87;2.02;;;;;;;17.07;41.92;101915.25;1744536;81;21625;-62
2021/09/07 08:35:17;;;;;;;5.40;1.90;;;;;;;17.10;41.30;101915.00;1738060;79;21058;-65
2021/09/07 08:37:44;;;;;;;7.62;1.65;;;;;;;17.17;40.47;101915.33;1738588;81;21555;-63
2021/09/07 08:40:11;;;;;;;5.85;2.30;;;;;;;17.20;40.44;101911.92;1740340;80;21186;-63
2021/09/07 08:42:37;;;;;;;3.90;1.40;;;;;;;17.25;39.50;101908.88;1734134;80;21538;-68
2021/09/07 08:45:07;;;;;;;5.35;1.60;;;;;;;17.29;38.89;101911.63;1740497;80;21058;-64
2021/09/07 08:47:33;;;;;;;8.63;3.02;;;;;;;17.32;38.65;101903.39;1740076;81;21145;-65
2021/09/07 08:50:02;;;;;;;5.37;1.95;;;;;;;17.38;39.08;101904.22;1741723;80;21608;-65
2021/09/07 08:52:29;;;;;;;5.90;2.00;;;;;;;17.43;38.52;101902.47;1719818;81;21057;-65
2021/09/07 08:54:55;;;;;;;6.58;2.25;;;;;;;17.49;37.66;101905.95;1739483;80;21293;-64
2021/09/07 08:57:22;;;;;;;8.28;1.82;;;;;;;17.53;38.72;101903.37;1721640;81;21580;-65
2021/09/07 09:00:04;;;;;;;4.15;1.45;;;;;;;17.61;39.16;101900.89;1744840;80;21101;-65
2021/09/07 09:02:34;;;;;;;4.33;1.30;;;;;;;17.70;38.54;101907.27;1747737;81;21093;-63
2021/09/07 09:05:00;;;;;;;6.65;1.65;;;;;;;17.78;37.92;101898.60;1711880;81;21144;-63
2021/09/07 09:07:28;;;;;;;4.72;1.52;;;;;;;17.86;38.23;101905.94;1747377;81;21030;-65
2021/09/07 09:09:57;;;;;;;5.25;1.45;;;;;;;17.93;37.51;101902.62;1719840;81;21601;-63
2021/09/07 09:12:34;;;;;;;9.20;2.10;;;;;;;17.98;36.75;101895.56;1714035;81;21046;-64
2021/09/07 09:15:15;;;;;;;11.93;1.77;;;;;;;17.99;36.69;101891.44;1744876;80;21389;-67
2021/09/07 09:17:42;;;;;;;4.65;1.85;;;;;;;18.03;36.64;101891.17;1725283;81;21073;-71
2021/09/07 09:20:15;;;;;;;7.08;2.42;;;;;;;18.07;36.59;101889.91;1741291;80;21105;-66
2021/09/07 09:22:55;;;;;;;7.85;2.20;;;;;;;18.10;36.78;101893.14;1746058;81;21594;-66
2021/09/07 09:25:26;;;;;;;5.05;1.98;;;;;;;18.14;36.61;101888.38;1741692;80;21023;-64
2021/09/07 09:28:11;;;;;;;5.08;1.62;;;;;;;18.16;36.43;101885.95;1738261;81;21058;-64
2021/09/07 09:30:41;;;;;;;5.15;1.70;;;;;;;18.18;36.35;101884.48;1712756;81;21078;-68
2021/09/07 09:33:08;;;;;;;5.05;1.30;;;;;;;18.23;36.38;101900.07;1736735;80;21011;-64
2021/09/07 09:35:52;;;;;;;3.98;1.50;;;;;;;18.26;36.02;101889.15;1709478;81;21113;-65
2021/09/07 09:38:20;;;;;;;4.53;1.70;;;;;;;18.32;36.00;101885.92;1739044;81;21144;-71
2021/09/07 09:40:59;;;;;;;6.47;1.70;;;;;;;18.41;35.78;101881.58;1710260;81;21105;-68
2021/09/07 09:43:32;;;;;;;5.42;1.62;;;;;;;18.48;36.13;101882.23;1709629;80;21651;-65
2021/09/07 09:46:21;;;;;;;5.05;2.05;;;;;;;18.57;36.57;101880.55;1740314;80;21102;-66
2021/09/07 10:00:53;;;;;;;6.55;2.45;;;;;;;20.26;32.89;101869.23;1886068;74;22657;-55
2021/09/07 10:03:19;;;;;;;7.20;2.35;;;;;;;20.38;32.41;101874.70;1860892;75;21088;-56
2021/09/07 10:05:47;;;;;;;5.40;2.12;;;;;;;20.31;32.84;101871.44;1863647;75;21193;-56
2021/09/07 10:08:18;;;;;;;5.35;2.15;;;;;;;20.22;32.11;101871.38;1826416;75;21136;-56
2021/09/07 10:10:58;;;;;;;7.83;2.30;;;;;;;20.15;32.62;101874.78;1855872;75;20966;-57
2021/09/07 10:13:26;;;;;;;5.42;2.05;;;;;;;20.11;33.08;101881.42;1863128;75;21049;-56
2021/09/07 10:15:59;;;;;;;5.78;1.87;;;;;;;20.03;32.85;101880.31;1861558;75;20886;-55
2021/09/07 10:18:40;;;;;;;4.83;2.08;;;;;;;19.91;33.02;101877.51;1869989;75;20903;-57
2021/09/07 10:26:18;;;;;;;7.28;1.80;;;;;;;19.80;32.87;101863.86;1823639;75;21628;-56
2021/09/07 10:28:45;;;;;;;4.22;1.27;;;;;;;19.76;32.97;101858.95;1855125;75;21582;-56
2021/09/07 10:31:17;;;;;;;5.20;1.32;;;;;;;19.74;33.81;101861.73;1826423;75;21178;-56
2021/09/07 10:34:02;;;;;;;6.60;1.67;;;;;;;19.77;33.70;101864.16;1830032;75;21560;-52
2021/09/07 10:36:31;;;;;;;5.55;1.70;;;;;;;19.75;33.20;101862.09;1827782;75;21072;-61
2021/09/07 10:38:58;;;;;;;4.95;1.90;;;;;;;19.74;33.73;101860.41;1823135;75;21041;-60
2021/09/07 10:41:41;;;;;;;3.83;1.32;;;;;;;19.75;33.46;101855.92;1856996;75;21357;-62
2021/09/07 10:44:11;;;;;;;6.37;1.70;;;;;;;19.77;33.34;101859.28;1854476;75;21082;-63
2021/09/07 10:46:48;;;;;;;4.83;1.60;;;;;;;19.77;32.71;101859.28;1812432;75;21069;-61
2021/09/07 10:49:40;;;;;;;4.37;1.82;;;;;;;19.76;32.61;101853.11;1856710;75;21057;-62
2021/09/07 10:52:25;;;;;;;5.83;1.90;;;;;;;19.76;32.27;101854.95;1857020;75;20975;-60
2021/09/07 10:55:10;;;;;;;8.83;1.87;;;;;;;19.76;32.87;101852.28;1861413;75;21684;-60
2021/09/07 10:57:43;;;;;;;4.50;2.02;;;;;;;19.77;33.51;101848.13;1860976;75;21179;-61
2021/09/07 11:00:28;;;;;;;4.40;1.77;;;;;;;19.81;33.28;101857.52;1853566;75;21131;-61
2021/09/07 11:03:00;;;;;;;3.77;1.42;;;;;;;19.82;32.69;101852.53;1860032;75;21047;-62
2021/09/07 11:05:34;;;;;;;4.12;1.50;;;;;;;19.74;32.73;101856.39;1850146;75;21062;-61
2021/09/07 11:08:05;;;;;;;5.08;2.02;;;;;;;19.67;32.46;101848.63;1833991;75;21048;-61
2021/09/07 11:10:37;;;;;;;4.42;1.65;;;;;;;19.68;32.97;101851.63;1862613;75;21478;-62
2021/09/07 11:13:21;;;;;;;4.20;1.42;;;;;;;19.72;32.54;101847.70;1858879;75;21059;-61
2021/09/07 11:15:47;;;;;;;4.20;1.27;;;;;;;19.74;32.68;101844.38;1857012;75;21083;-62
2021/09/07 11:18:25;;;;;;;4.60;1.45;;;;;;;19.77;33.01;101839.25;1862049;75;20932;-61
2021/09/07 11:20:52;;;;;;;5.40;1.62;;;;;;;19.76;33.08;101835.75;1831299;75;21096;-60
2021/09/07 11:23:27;;;;;;;8.80;2.00;;;;;;;19.75;34.11;101844.73;1857326;75;21373;-62
2021/09/07 11:26:04;;;;;;;5.58;1.55;;;;;;;19.80;33.39;101841.16;1853109;75;21006;-60
2021/09/07 11:28:34;;;;;;;5.55;1.47;;;;;;;19.88;33.75;101840.91;1858510;75;20998;-63
2021/09/07 11:31:01;;;;;;;6.47;1.87;;;;;;;19.95;32.89;101824.62;1833974;75;21028;-60
2021/09/07 11:33:36;;;;;;;5.20;1.75;;;;;;;19.95;32.60;101836.64;1830456;75;21511;-61
2021/09/07 11:36:16;;;;;;;4.35;1.40;;;;;;;19.92;32.77;101832.92;1853968;75;21215;-60
2021/09/07 11:38:47;;;;;;;4.25;1.30;;;;;;;19.91;32.73;101844.62;1860734;75;21123;-62
2021/09/07 11:41:16;;;;;;;3.58;1.55;;;;;;;19.94;32.19;101834.95;1863829;75;20981;-63
2021/09/07 11:43:45;;;;;;;4.10;1.57;;;;;;;19.94;31.97;101826.45;1859731;75;21049;-62